Ferndale, New York
Current Conditions -  °F | °C
As of 6:15 PM on Tuesday 21 Oct 2014 (Local Time) from KMSV Reporting Station
Overcast Overcast  
Wind Chill: 50°   Ceiling: 4000
Heat Index: 50°   Visibility: 10mi
Dew Point: 48°   Wind: 8mph
Humidity: 94%   Direction: 90°E
Pressure: 29.89"   Gusts: NA
Location:  41.77°N, 74.74°W
Report Text: KMSV 212215Z AUTO 09007KT 10SM SCT030 BKN040 OVC055 10/09 A2989 RMK AO1
Loading
Personal Weather Stations






























Interactive Weather Map
Tropical Storm Tracking
New forecast layout! Learn more

10-Day Weather Forecast

Advertisements
Track Severe Weather on mobile